Time;durP1;ratioP1;P1;durP2;ratioP2;P2;SDS_P1;SDS_P2;PMS_P1;PMS_P2;Temp;Humidity;BMP_temperature;BMP_pressure;BME280_temperature;BME280_humidity;BME280_pressure;Samples;Min_cycle;Max_cycle;Signal;HPM_P1;HPM_P2
2023/05/04 00:01:38;;;;;;;19.38;7.90;;;;;;;8.79;67.54;102162.44;4999239;28;20540;-67
2023/05/04 00:04:04;;;;;;;16.33;7.93;;;;;;;8.77;67.62;102167.94;5024057;28;20178;-68
2023/05/04 00:06:29;;;;;;;10.60;7.60;;;;;;;8.78;67.67;102157.97;5008953;28;20072;-67
2023/05/04 00:08:55;;;;;;;12.07;8.32;;;;;;;8.77;67.81;102159.81;5002231;28;20040;-67
2023/05/04 00:11:21;;;;;;;15.00;7.75;;;;;;;8.75;68.10;102155.38;4989724;28;20049;-67
2023/05/04 00:13:46;;;;;;;13.27;7.32;;;;;;;8.72;68.43;102148.28;4989309;28;20052;-68
2023/05/04 00:16:11;;;;;;;17.63;8.70;;;;;;;8.71;68.19;102153.75;4989484;28;20038;-67
2023/05/04 00:18:38;;;;;;;12.07;7.63;;;;;;;8.71;67.89;102142.91;4998613;28;20042;-67
2023/05/04 00:21:03;;;;;;;13.55;7.43;;;;;;;8.69;68.09;102148.41;4988845;28;20054;-67
2023/05/04 00:23:28;;;;;;;12.05;7.57;;;;;;;8.64;68.23;102139.59;4988481;28;20076;-67
2023/05/04 00:25:54;;;;;;;12.38;7.25;;;;;;;8.63;68.49;102132.41;4988983;28;20061;-67
2023/05/04 00:28:19;;;;;;;15.23;7.45;;;;;;;8.57;68.65;102125.38;5006611;28;20044;-68
2023/05/04 00:30:45;;;;;;;13.90;7.40;;;;;;;8.55;68.78;102121.88;4997319;28;20141;-67
2023/05/04 00:33:10;;;;;;;11.57;7.72;;;;;;;8.54;68.06;102120.13;4986827;28;20030;-68
2023/05/04 00:35:36;;;;;;;12.65;7.53;;;;;;;8.54;68.83;102124.66;4987556;28;20041;-67
2023/05/04 00:38:03;;;;;;;13.13;8.00;;;;;;;8.51;68.38;102117.53;4988722;28;20042;-67
2023/05/04 00:40:29;;;;;;;11.88;7.65;;;;;;;8.51;68.50;102119.34;4988682;28;20105;-67
2023/05/04 00:42:54;;;;;;;13.98;7.68;;;;;;;8.51;68.62;102124.78;5007401;28;20434;-67
2023/05/04 00:45:20;;;;;;;10.98;7.53;;;;;;;8.49;68.81;102116.72;5000910;28;20125;-67
2023/05/04 00:47:46;;;;;;;14.38;6.80;;;;;;;8.48;68.93;102112.22;4988411;28;20049;-67
2023/05/04 00:50:11;;;;;;;15.32;8.00;;;;;;;8.47;68.85;102118.59;4988851;28;20461;-67
2023/05/04 00:52:40;;;;;;;10.95;7.32;;;;;;;8.42;69.45;102121.50;4988218;28;20431;-67
2023/05/04 00:55:06;;;;;;;11.02;7.18;;;;;;;8.41;70.26;102110.75;4988572;28;20470;-68
2023/05/04 00:57:31;;;;;;;15.43;7.85;;;;;;;8.39;68.86;102108.09;4987458;28;20054;-67
2023/05/04 00:59:56;;;;;;;10.93;7.90;;;;;;;8.39;68.69;102115.34;4996789;28;20453;-68
2023/05/04 01:02:22;;;;;;;12.90;7.13;;;;;;;8.37;69.28;102106.41;5004205;28;20080;-68
2023/05/04 01:04:48;;;;;;;11.48;6.78;;;;;;;8.36;69.67;102107.31;5007310;28;20405;-67
2023/05/04 01:07:31;;;;;;;11.95;7.05;;;;;;;8.33;69.56;102100.19;5007905;28;20041;-67
2023/05/04 01:10:02;;;;;;;9.52;6.85;;;;;;;8.32;70.26;102105.69;4993254;28;20042;-67
2023/05/04 01:12:46;;;;;;;13.88;7.57;;;;;;;8.27;69.75;102100.44;4988781;28;20031;-67
2023/05/04 01:15:12;;;;;;;12.70;7.47;;;;;;;8.26;70.22;102101.41;4988608;28;20304;-67
2023/05/04 01:17:37;;;;;;;10.07;6.45;;;;;;;8.26;69.76;102095.09;4988394;28;20398;-67
2023/05/04 01:20:03;;;;;;;15.38;7.53;;;;;;;8.21;70.01;102081.75;4988631;28;20037;-67
2023/05/04 01:22:29;;;;;;;14.75;7.65;;;;;;;8.19;70.26;102087.22;4988147;28;20434;-67
2023/05/04 01:24:55;;;;;;;10.50;6.85;;;;;;;8.16;69.86;102081.94;4987100;28;20182;-68
2023/05/04 01:27:25;;;;;;;11.23;7.28;;;;;;;8.13;69.83;102078.47;4998086;28;20080;-67
2023/05/04 01:30:00;;;;;;;15.85;7.38;;;;;;;8.10;69.92;102090.31;5004742;28;20398;-67
2023/05/04 01:32:28;;;;;;;10.50;6.45;;;;;;;8.05;70.83;102081.50;4988468;28;20038;-68
2023/05/04 01:34:57;;;;;;;11.82;6.80;;;;;;;8.02;70.83;102088.88;4987594;28;20031;-68
2023/05/04 01:37:22;;;;;;;18.88;7.40;;;;;;;8.00;71.26;102090.78;4986502;28;20034;-68
2023/05/04 01:39:49;;;;;;;11.48;7.70;;;;;;;7.95;71.27;102090.97;4987454;28;20122;-67
2023/05/04 01:42:15;;;;;;;17.55;7.57;;;;;;;7.90;72.04;102085.72;4987244;28;20560;-69
2023/05/04 01:44:42;;;;;;;13.25;7.60;;;;;;;7.89;71.33;102083.09;4987130;28;20426;-68
2023/05/04 01:47:07;;;;;;;12.13;7.22;;;;;;;7.81;71.25;102074.41;4990574;28;20034;-67
2023/05/04 01:49:33;;;;;;;13.02;7.28;;;;;;;7.84;71.83;102079.69;4992021;28;20053;-67
2023/05/04 01:51:58;;;;;;;9.88;6.78;;;;;;;7.83;71.17;102081.53;4991903;28;20093;-67
2023/05/04 01:54:23;;;;;;;13.98;7.20;;;;;;;7.81;71.54;102079.81;5000263;28;20125;-67
2023/05/04 01:56:49;;;;;;;11.27;7.78;;;;;;;7.79;71.26;102092.56;5004655;28;20042;-68
2023/05/04 01:59:14;;;;;;;10.43;6.75;;;;;;;7.75;72.42;102085.50;4992016;28;20018;-67
2023/05/04 02:01:40;;;;;;;14.45;7.90;;;;;;;7.73;72.99;102096.38;4997607;28;20501;-67
2023/05/04 02:04:06;;;;;;;14.63;7.57;;;;;;;7.72;72.74;102091.91;4990192;28;20046;-67
2023/05/04 02:06:32;;;;;;;9.80;7.63;;;;;;;7.70;71.38;102087.50;4991316;28;20038;-67
2023/05/04 02:08:57;;;;;;;10.52;7.13;;;;;;;7.66;72.52;102078.63;4992575;28;20038;-67
2023/05/04 02:11:23;;;;;;;13.77;7.03;;;;;;;7.62;72.90;102080.56;5006636;28;20049;-68
2023/05/04 02:13:51;;;;;;;13.55;7.13;;;;;;;7.52;72.93;102071.06;4990594;28;20030;-68
2023/05/04 02:16:17;;;;;;;13.20;7.82;;;;;;;7.54;73.50;102079.97;4990596;28;20053;-67
2023/05/04 02:18:42;;;;;;;14.65;7.18;;;;;;;7.54;72.96;102088.09;4990069;28;20173;-68
2023/05/04 02:21:08;;;;;;;15.70;7.65;;;;;;;7.51;73.50;102082.84;4989918;28;20130;-68
2023/05/04 02:23:33;;;;;;;15.15;7.10;;;;;;;7.45;73.76;102080.34;4989377;28;20026;-67
2023/05/04 02:25:59;;;;;;;18.75;7.93;;;;;;;7.45;73.05;102074.94;4989980;28;20057;-68
2023/05/04 02:28:24;;;;;;;12.85;7.65;;;;;;;7.44;73.98;102066.88;4991236;28;20064;-68
2023/05/04 02:30:49;;;;;;;13.20;6.93;;;;;;;7.40;74.67;102064.28;4991672;28;20041;-67
2023/05/04 02:33:15;;;;;;;11.00;8.23;;;;;;;7.36;74.54;102068.03;4991307;28;20038;-67
2023/05/04 02:35:40;;;;;;;14.63;7.65;;;;;;;7.35;74.97;102062.72;4989911;28;20621;-67
2023/05/04 02:38:06;;;;;;;12.05;7.82;;;;;;;7.32;75.02;102066.44;4989381;28;20034;-67
2023/05/04 02:40:32;;;;;;;13.68;8.25;;;;;;;7.29;75.27;102061.13;4991056;28;20040;-68
2023/05/04 02:42:57;;;;;;;12.43;8.07;;;;;;;7.25;74.96;102059.47;5009062;28;20088;-67
2023/05/04 02:45:22;;;;;;;15.77;8.15;;;;;;;7.21;75.84;102059.66;5001521;28;20029;-67
2023/05/04 02:47:48;;;;;;;13.98;7.40;;;;;;;7.15;76.62;102063.50;4991296;28;20038;-67
2023/05/04 02:50:13;;;;;;;12.95;7.47;;;;;;;7.09;76.50;102064.63;4989782;28;20110;-67
2023/05/04 02:52:38;;;;;;;18.15;9.02;;;;;;;7.06;77.22;102064.72;4989411;28;20073;-67
2023/05/04 02:55:05;;;;;;;13.68;7.70;;;;;;;7.02;76.99;102062.19;4990726;28;20030;-67
2023/05/04 02:57:30;;;;;;;14.45;7.68;;;;;;;6.99;76.48;102052.34;4990047;28;20030;-67
2023/05/04 02:59:56;;;;;;;15.60;7.10;;;;;;;6.99;76.61;102056.88;4989202;28;20320;-67
2023/05/04 03:02:22;;;;;;;12.07;7.57;;;;;;;6.96;76.79;102059.72;4990878;28;20019;-68
2023/05/04 03:04:47;;;;;;;11.45;7.07;;;;;;;6.94;76.23;102062.47;4979629;28;20522;-68
2023/05/04 03:07:13;;;;;;;15.02;7.75;;;;;;;6.93;75.55;102067.94;5009858;28;20056;-67
2023/05/04 03:09:39;;;;;;;12.77;7.80;;;;;;;6.89;77.18;102054.53;4991976;28;20037;-68
2023/05/04 03:12:05;;;;;;;13.38;7.90;;;;;;;6.85;76.77;102068.22;5010288;28;20509;-67
2023/05/04 03:14:30;;;;;;;12.60;8.07;;;;;;;6.83;77.27;102056.59;5007998;28;20034;-67
2023/05/04 03:16:56;;;;;;;20.95;7.78;;;;;;;6.78;78.47;102061.31;4988958;28;20550;-67
2023/05/04 03:19:22;;;;;;;15.38;7.57;;;;;;;6.76;77.89;102053.25;4989193;28;20121;-68
2023/05/04 03:21:48;;;;;;;15.68;8.70;;;;;;;6.75;77.24;102048.75;4989162;28;20258;-67
2023/05/04 03:24:17;;;;;;;16.40;8.27;;;;;;;6.74;77.54;102047.00;4989302;28;20030;-68
2023/05/04 03:26:42;;;;;;;14.48;9.50;;;;;;;6.71;77.11;102048.94;4993160;28;20037;-67
2023/05/04 03:29:09;;;;;;;11.45;7.20;;;;;;;6.71;76.66;102046.22;5009369;28;20105;-67
2023/05/04 03:31:34;;;;;;;15.38;8.35;;;;;;;6.66;78.66;102035.56;4991709;28;20562;-67
2023/05/04 03:34:00;;;;;;;15.40;8.13;;;;;;;6.66;77.97;102035.56;4988802;28;20117;-67
2023/05/04 03:36:26;;;;;;;13.95;7.57;;;;;;;6.67;78.17;102031.03;4988540;28;20124;-67
2023/05/04 03:38:51;;;;;;;12.23;7.40;;;;;;;6.63;77.59;102030.31;4989964;28;20026;-68
2023/05/04 03:41:18;;;;;;;14.48;7.65;;;;;;;6.63;78.27;102025.78;4989141;28;20065;-68
2023/05/04 03:43:43;;;;;;;13.35;7.57;;;;;;;6.64;77.56;102030.25;4988723;28;20455;-67
2023/05/04 03:46:10;;;;;;;13.93;8.45;;;;;;;6.62;78.09;102029.44;5000064;28;20116;-67
2023/05/04 03:48:35;;;;;;;13.88;7.50;;;;;;;6.57;77.53;102023.28;5004706;28;20447;-68
2023/05/04 03:51:01;;;;;;;14.75;7.47;;;;;;;6.60;78.29;102025.88;4989563;28;20085;-68
2023/05/04 03:53:26;;;;;;;15.50;7.47;;;;;;;6.60;77.98;102023.16;4987834;28;20483;-67
2023/05/04 03:55:52;;;;;;;13.10;7.78;;;;;;;6.60;78.52;102025.88;4989832;28;20097;-68
2023/05/04 03:58:17;;;;;;;14.35;8.02;;;;;;;6.59;78.67;102015.13;4988823;28;20384;-67
2023/05/04 04:00:42;;;;;;;15.10;8.40;;;;;;;6.56;79.34;102020.63;4988170;28;20407;-68
2023/05/04 04:03:13;;;;;;;16.35;8.30;;;;;;;6.51;78.76;102020.81;4987977;28;20434;-67
2023/05/04 04:05:38;;;;;;;14.00;7.50;;;;;;;6.52;79.14;102018.97;4989417;28;20042;-67
2023/05/04 04:08:04;;;;;;;11.82;7.15;;;;;;;6.53;79.38;102024.34;4987841;28;20035;-67
2023/05/04 04:10:30;;;;;;;18.60;8.63;;;;;;;6.50;80.00;102019.06;4989425;28;20038;-67
2023/05/04 04:12:55;;;;;;;12.93;8.85;;;;;;;6.48;79.54;102023.66;4994361;28;20103;-67
2023/05/04 04:15:21;;;;;;;10.27;7.30;;;;;;;6.47;79.50;102021.84;4989467;28;20065;-67
2023/05/04 04:17:46;;;;;;;11.85;8.02;;;;;;;6.50;79.66;102023.56;4988747;28;20125;-67
2023/05/04 04:20:11;;;;;;;21.45;7.72;;;;;;;6.48;80.15;102020.94;4989005;28;20026;-67
2023/05/04 04:22:37;;;;;;;16.55;7.75;;;;;;;6.49;78.98;102013.72;4988428;28;20049;-67
2023/05/04 04:25:03;;;;;;;14.02;8.48;;;;;;;6.50;79.28;102015.47;4989019;28;20041;-67
2023/05/04 04:27:28;;;;;;;12.55;8.30;;;;;;;6.52;80.50;102009.03;4999294;28;20038;-67
2023/05/04 04:29:53;;;;;;;15.50;8.38;;;;;;;6.52;79.91;102008.16;5005615;28;20032;-67
2023/05/04 04:32:20;;;;;;;13.60;8.30;;;;;;;6.53;79.90;102004.56;4989354;28;20034;-67
2023/05/04 04:34:45;;;;;;;14.65;8.35;;;;;;;6.54;80.08;101998.19;4998832;28;20036;-67
2023/05/04 04:37:10;;;;;;;14.57;7.68;;;;;;;6.56;80.83;102007.13;5008506;28;20275;-67
2023/05/04 04:39:36;;;;;;;13.30;8.35;;;;;;;6.58;80.77;102008.84;5005986;28;20041;-67
2023/05/04 04:42:01;;;;;;;15.65;9.35;;;;;;;6.61;80.65;101999.72;5008477;28;20046;-68
2023/05/04 04:44:27;;;;;;;13.70;8.13;;;;;;;6.64;80.37;102005.91;4998714;28;20027;-67
2023/05/04 04:46:52;;;;;;;18.33;7.85;;;;;;;6.68;80.52;102000.38;4988341;28;20030;-68
2023/05/04 04:49:17;;;;;;;12.60;8.25;;;;;;;6.74;80.27;102009.13;4989422;28;20069;-68
2023/05/04 04:51:43;;;;;;;17.33;9.43;;;;;;;6.78;80.49;102001.81;4988194;28;20049;-68
2023/05/04 04:54:08;;;;;;;15.07;8.15;;;;;;;6.79;79.13;101993.63;4988868;28;20030;-67
2023/05/04 04:56:35;;;;;;;13.35;8.45;;;;;;;6.84;79.98;101999.72;5008330;28;20382;-67
2023/05/04 04:59:00;;;;;;;13.15;7.45;;;;;;;6.87;79.98;102006.84;4993361;28;20042;-68
2023/05/04 05:01:26;;;;;;;10.68;7.03;;;;;;;6.87;79.35;101991.50;5001828;28;20045;-67
2023/05/04 05:03:51;;;;;;;12.95;7.28;;;;;;;6.93;79.37;102003.91;5005316;28;20514;-68
2023/05/04 05:06:17;;;;;;;14.30;7.88;;;;;;;6.96;80.37;102002.91;5006418;28;20430;-68
2023/05/04 05:08:43;;;;;;;15.88;7.93;;;;;;;6.99;79.92;102011.78;5005851;28;20070;-67
2023/05/04 05:11:09;;;;;;;13.48;8.55;;;;;;;7.02;79.84;102008.97;5001193;28;20514;-67
2023/05/04 05:13:35;;;;;;;22.88;9.23;;;;;;;7.06;79.80;102013.31;5003126;28;20033;-67
2023/05/04 05:16:00;;;;;;;14.93;8.57;;;;;;;7.11;80.09;102011.31;4996154;28;20490;-68
2023/05/04 05:18:26;;;;;;;15.70;7.80;;;;;;;7.16;79.52;102012.00;4989543;28;20816;-67
2023/05/04 05:20:51;;;;;;;14.07;8.00;;;;;;;7.21;79.54;102008.25;4997242;28;20041;-68
2023/05/04 05:23:17;;;;;;;15.38;7.28;;;;;;;7.25;79.34;102005.34;5005986;28;20030;-67
2023/05/04 05:25:43;;;;;;;24.88;9.20;;;;;;;7.30;78.51;102014.16;4990770;28;20038;-67
2023/05/04 05:28:09;;;;;;;11.93;7.85;;;;;;;7.34;78.55;102006.81;4991941;28;20042;-68
2023/05/04 05:30:34;;;;;;;17.25;7.20;;;;;;;7.44;77.77;102015.44;4991464;28;20045;-68
2023/05/04 05:33:00;;;;;;;13.57;8.95;;;;;;;7.54;79.17;102019.53;4991948;28;20042;-68
2023/05/04 05:35:26;;;;;;;16.52;7.70;;;;;;;7.59;78.28;102009.38;4990690;28;20026;-68
2023/05/04 05:37:51;;;;;;;15.80;8.20;;;;;;;7.67;77.79;102016.25;4992256;28;20042;-69
2023/05/04 05:40:18;;;;;;;12.05;7.53;;;;;;;7.74;77.84;102011.47;4995255;28;20034;-68
2023/05/04 05:42:43;;;;;;;13.10;8.15;;;;;;;7.79;77.97;102014.88;4990753;28;20082;-67
2023/05/04 05:45:09;;;;;;;14.38;7.85;;;;;;;7.87;77.88;102017.25;4992104;28;20077;-68
2023/05/04 05:47:35;;;;;;;14.13;8.02;;;;;;;7.95;77.77;102008.78;4992077;28;20133;-69
2023/05/04 05:50:02;;;;;;;18.75;7.78;;;;;;;8.05;76.99;102002.03;4991937;28;20557;-68
2023/05/04 05:52:27;;;;;;;11.90;7.40;;;;;;;8.21;77.85;102007.66;4991777;28;20561;-68
2023/05/04 05:54:53;;;;;;;15.27;7.53;;;;;;;8.30;76.83;102001.81;4991769;28;20061;-68
2023/05/04 05:57:19;;;;;;;12.93;7.20;;;;;;;8.34;76.36;101995.31;4992168;28;20117;-67
2023/05/04 05:59:46;;;;;;;13.80;7.80;;;;;;;8.45;77.05;102005.75;4991811;28;20563;-68
2023/05/04 06:02:13;;;;;;;14.00;7.88;;;;;;;8.51;75.75;101997.31;4990205;28;20269;-67
2023/05/04 06:04:40;;;;;;;17.65;8.20;;;;;;;8.57;76.57;101997.91;4991634;28;20061;-68
2023/05/04 06:07:05;;;;;;;9.80;7.32;;;;;;;8.65;75.85;101994.84;4991640;28;20084;-67
2023/05/04 06:09:31;;;;;;;12.80;7.55;;;;;;;8.70;75.71;101992.81;4997000;28;20042;-68
2023/05/04 06:11:57;;;;;;;15.48;8.70;;;;;;;8.75;75.31;101987.16;4991742;28;20026;-68
2023/05/04 06:14:22;;;;;;;14.38;8.73;;;;;;;8.78;75.25;101987.03;4991593;28;20045;-67
2023/05/04 06:16:47;;;;;;;15.50;7.78;;;;;;;8.86;75.08;101976.69;4991612;28;20034;-68
2023/05/04 06:19:13;;;;;;;11.10;7.75;;;;;;;8.99;74.74;101974.28;4991773;28;20042;-68
2023/05/04 06:21:38;;;;;;;17.00;7.72;;;;;;;9.07;74.56;101972.06;4991348;28;20035;-68
2023/05/04 06:24:04;;;;;;;10.77;8.25;;;;;;;9.19;74.04;101972.38;4991247;28;20121;-68
2023/05/04 06:26:29;;;;;;;18.20;8.55;;;;;;;9.31;75.11;101970.00;4991252;28;20470;-68
2023/05/04 06:28:55;;;;;;;13.68;8.73;;;;;;;9.44;74.57;101966.59;4991104;28;20116;-68
2023/05/04 06:31:20;;;;;;;17.65;8.82;;;;;;;9.56;74.76;101959.69;4990340;28;20507;-68
2023/05/04 06:33:46;;;;;;;15.20;7.93;;;;;;;9.67;73.84;101961.84;4989822;28;20447;-67
2023/05/04 06:36:12;;;;;;;9.77;7.53;;;;;;;9.80;73.55;101954.84;4989859;28;20053;-68
2023/05/04 06:38:37;;;;;;;16.45;7.85;;;;;;;9.85;72.07;101947.31;4990645;28;20044;-67
2023/05/04 06:41:03;;;;;;;12.95;8.35;;;;;;;9.97;71.91;101949.38;4991213;28;20482;-68
2023/05/04 06:43:28;;;;;;;16.35;8.30;;;;;;;10.12;72.57;101952.28;4991097;28;20475;-68
2023/05/04 06:45:53;;;;;;;10.50;7.28;;;;;;;10.21;71.98;101954.50;4993352;28;20475;-68
2023/05/04 06:48:19;;;;;;;11.70;7.28;;;;;;;10.28;70.92;101952.38;4991252;28;20443;-68
2023/05/04 06:50:44;;;;;;;13.90;7.75;;;;;;;10.31;70.13;101947.66;4991027;28;20034;-68
2023/05/04 06:53:10;;;;;;;11.55;7.80;;;;;;;10.37;72.42;101949.16;4990302;28;20049;-68
2023/05/04 06:55:36;;;;;;;12.63;7.32;;;;;;;10.45;70.68;101942.34;4990593;28;20100;-67
2023/05/04 06:58:02;;;;;;;9.70;6.40;;;;;;;10.52;69.76;101945.59;4990784;28;20537;-68
2023/05/04 07:00:27;;;;;;;13.45;7.00;;;;;;;10.59;70.29;101943.44;4990779;28;20026;-68
2023/05/04 07:02:53;;;;;;;11.55;7.60;;;;;;;10.68;69.35;101949.25;5009863;28;20504;-68
2023/05/04 07:05:22;;;;;;;12.05;6.93;;;;;;;10.79;68.48;101945.94;5009093;28;20406;-68
2023/05/04 07:07:48;;;;;;;11.73;6.35;;;;;;;10.87;68.26;101940.06;4992986;28;20498;-68
2023/05/04 07:10:14;;;;;;;11.68;6.50;;;;;;;10.90;68.38;101938.03;4989265;28;20510;-68
2023/05/04 07:12:40;;;;;;;9.35;6.63;;;;;;;10.96;68.10;101937.69;5005774;28;20100;-67
2023/05/04 07:15:07;;;;;;;10.07;6.25;;;;;;;11.03;68.86;101932.78;4988778;28;20018;-68
2023/05/04 07:17:33;;;;;;;11.07;6.65;;;;;;;11.11;68.19;101922.31;4988786;28;20046;-68
2023/05/04 07:20:01;;;;;;;12.63;7.68;;;;;;;11.22;69.57;101918.97;4990249;28;20053;-68
2023/05/04 07:22:26;;;;;;;10.27;6.72;;;;;;;11.32;68.26;101916.59;4990134;28;20402;-68
2023/05/04 07:24:51;;;;;;;10.05;6.32;;;;;;;11.57;67.69;101918.78;5000986;28;20038;-68
2023/05/04 07:27:17;;;;;;;14.55;7.45;;;;;;;11.63;65.52;101919.28;4999167;28;20033;-68
2023/05/04 07:29:42;;;;;;;11.45;6.55;;;;;;;11.68;65.75;101913.53;4988858;28;20041;-68
2023/05/04 07:32:08;;;;;;;14.20;6.88;;;;;;;11.74;67.26;101914.03;4993988;28;20057;-68
2023/05/04 07:34:34;;;;;;;10.30;6.82;;;;;;;11.93;66.78;101912.97;5009889;28;20069;-68
2023/05/04 07:37:02;;;;;;;14.07;8.15;;;;;;;12.08;66.27;101908.44;5007885;28;20108;-68
2023/05/04 07:39:28;;;;;;;11.02;7.00;;;;;;;12.27;65.54;101911.78;4990120;28;20152;-68
2023/05/04 07:41:53;;;;;;;12.88;7.78;;;;;;;12.46;65.37;101908.75;4988312;28;20093;-67
2023/05/04 07:44:19;;;;;;;15.40;7.70;;;;;;;12.63;65.20;101910.41;4989748;28;20497;-68
2023/05/04 07:46:44;;;;;;;11.23;6.50;;;;;;;12.75;64.49;101901.44;4989535;28;20066;-68
2023/05/04 07:49:10;;;;;;;8.80;6.38;;;;;;;12.90;62.29;101908.63;4989565;28;20034;-68
2023/05/04 07:51:35;;;;;;;9.25;6.78;;;;;;;13.12;63.07;101905.38;4989465;28;20102;-68
2023/05/04 07:54:00;;;;;;;11.93;7.22;;;;;;;13.39;62.36;101908.16;4988198;28;20498;-68
2023/05/04 07:56:26;;;;;;;11.70;6.63;;;;;;;13.62;62.49;101905.72;4988402;28;20065;-68
2023/05/04 07:58:51;;;;;;;8.80;6.60;;;;;;;13.97;62.04;101893.19;4990090;28;20046;-68
2023/05/04 08:01:17;;;;;;;8.45;6.45;;;;;;;14.21;58.92;101906.13;4988954;28;20133;-68
2023/05/04 08:03:44;;;;;;;9.32;6.43;;;;;;;14.50;59.55;101902.25;4989302;28;20161;-68
2023/05/04 08:06:09;;;;;;;13.45;6.80;;;;;;;14.91;60.04;101905.66;4989476;28;20050;-68
2023/05/04 08:08:34;;;;;;;12.65;6.40;;;;;;;15.20;57.15;101895.25;4989228;28;20041;-68
2023/05/04 08:11:00;;;;;;;10.30;5.80;;;;;;;15.44;56.38;101896.19;4989695;28;20073;-68
2023/05/04 08:13:25;;;;;;;12.82;6.45;;;;;;;15.60;53.87;101884.03;4989368;28;20126;-68
2023/05/04 08:15:50;;;;;;;10.60;6.75;;;;;;;15.99;57.70;101878.22;4988631;28;20116;-68
2023/05/04 08:18:16;;;;;;;13.38;6.32;;;;;;;16.31;55.63;101886.59;4989444;28;20040;-68
2023/05/04 08:20:42;;;;;;;10.20;6.47;;;;;;;16.59;55.12;101877.00;4989365;28;20037;-68
2023/05/04 08:23:07;;;;;;;12.77;6.82;;;;;;;16.78;53.97;101870.91;4989478;28;20501;-68
2023/05/04 08:25:33;;;;;;;11.25;6.53;;;;;;;16.87;54.11;101868.41;5004923;28;20478;-68
2023/05/04 08:27:58;;;;;;;11.10;7.10;;;;;;;17.05;51.69;101869.63;4994003;28;20121;-68
2023/05/04 08:30:24;;;;;;;8.38;6.43;;;;;;;17.11;51.72;101866.38;4988970;28;20045;-68
2023/05/04 08:32:51;;;;;;;12.85;6.57;;;;;;;17.12;51.33;101864.53;4989461;28;20034;-68
2023/05/04 08:35:17;;;;;;;8.98;6.38;;;;;;;17.11;51.64;101866.38;4989702;28;20474;-68
2023/05/04 08:37:42;;;;;;;10.10;6.13;;;;;;;17.44;53.31;101861.75;4988430;28;20089;-68
2023/05/04 08:40:08;;;;;;;9.20;6.28;;;;;;;17.69;51.78;101860.56;4988807;28;20406;-69
2023/05/04 08:42:33;;;;;;;15.00;6.43;;;;;;;17.82;50.34;101853.88;4989198;28;20030;-68
2023/05/04 08:44:59;;;;;;;12.88;6.03;;;;;;;17.60;49.33;101857.59;4987153;28;21703;-68
2023/05/04 08:47:26;;;;;;;9.93;6.47;;;;;;;17.79;53.13;101851.38;4988726;28;20043;-68
2023/05/04 08:49:53;;;;;;;9.63;7.05;;;;;;;17.95;48.74;101848.19;4989294;28;20491;-69
2023/05/04 08:52:23;;;;;;;10.65;6.60;;;;;;;18.20;50.16;101838.63;4989184;28;20388;-68
2023/05/04 08:54:53;;;;;;;12.55;7.18;;;;;;;18.20;48.65;101819.34;4988280;28;20042;-68
2023/05/04 08:57:21;;;;;;;10.35;6.57;;;;;;;18.43;49.91;101816.41;4989143;28;20046;-68
2023/05/04 08:59:54;;;;;;;10.52;6.45;;;;;;;18.50;48.26;101817.56;4987569;28;20042;-68
2023/05/04 09:02:22;;;;;;;13.05;6.50;;;;;;;18.71;49.75;101820.31;4987498;28;20526;-69
2023/05/04 09:04:49;;;;;;;10.93;6.50;;;;;;;18.91;46.79;101812.97;4988923;28;20117;-68
2023/05/04 09:07:16;;;;;;;11.57;6.75;;;;;;;19.16;49.83;101815.16;4986939;28;20129;-68
2023/05/04 09:09:41;;;;;;;14.02;6.80;;;;;;;19.39;47.84;101804.72;4987326;28;20121;-68
2023/05/04 09:12:07;;;;;;;10.13;6.38;;;;;;;19.52;45.42;101810.84;4988540;28;20026;-68
2023/05/04 09:14:34;;;;;;;9.50;6.20;;;;;;;19.44;47.42;101810.69;4988805;28;20420;-68
2023/05/04 09:17:00;;;;;;;12.63;6.65;;;;;;;19.70;46.26;101807.38;4988311;28;20121;-68
2023/05/04 09:19:32;;;;;;;15.18;6.80;;;;;;;19.78;45.00;101802.88;4988733;28;20026;-68
2023/05/04 09:22:01;;;;;;;13.18;6.68;;;;;;;19.72;45.22;101808.09;4990206;28;20042;-67
2023/05/04 09:24:29;;;;;;;12.05;5.85;;;;;;;20.01;47.14;101806.16;4987890;28;20394;-68
2023/05/04 09:27:08;;;;;;;9.65;6.32;;;;;;;20.30;47.34;101802.44;4989742;28;20046;-68
2023/05/04 09:29:36;;;;;;;14.75;6.88;;;;;;;20.39;44.29;101796.88;4988565;28;20434;-68
2023/05/04 09:32:03;;;;;;;10.43;6.95;;;;;;;20.42;43.81;101794.81;4988266;28;20034;-68
2023/05/04 09:34:28;;;;;;;9.20;6.38;;;;;;;20.60;46.69;101785.59;4987358;28;20038;-68
2023/05/04 09:37:01;;;;;;;10.70;6.95;;;;;;;20.89;43.89;101804.81;4986758;28;20129;-68
2023/05/04 09:39:27;;;;;;;13.15;7.30;;;;;;;20.77;42.09;101788.56;4988305;28;20113;-68
2023/05/04 09:41:53;;;;;;;10.23;6.95;;;;;;;20.85;43.43;101786.75;4988469;28;20535;-68
2023/05/04 09:44:23;;;;;;;10.13;7.07;;;;;;;20.97;46.17;101792.06;4988452;28;20041;-67
2023/05/04 09:46:56;;;;;;;11.65;7.25;;;;;;;21.10;45.51;101795.31;4990489;28;20050;-68
2023/05/04 09:49:35;;;;;;;9.98;6.70;;;;;;;21.12;43.47;101785.84;4993735;28;20109;-69
2023/05/04 09:52:03;;;;;;;9.85;6.97;;;;;;;21.45;44.52;101788.97;5007877;28;20612;-68
2023/05/04 09:54:33;;;;;;;14.20;6.93;;;;;;;21.58;41.27;101788.56;4996950;28;20449;-68
2023/05/04 09:57:14;;;;;;;12.38;7.22;;;;;;;21.72;43.57;101782.44;4988017;28;20453;-68
2023/05/04 09:59:40;;;;;;;10.27;7.70;;;;;;;22.15;42.01;101783.47;4988151;28;20030;-67
2023/05/04 10:02:06;;;;;;;14.40;7.47;;;;;;;22.07;41.24;101780.63;4991264;28;20065;-68
2023/05/04 10:04:38;;;;;;;13.70;6.25;;;;;;;22.41;44.03;101764.03;4988120;28;20061;-68
2023/05/04 10:07:05;;;;;;;9.63;7.07;;;;;;;22.36;39.43;101760.88;4989154;28;20050;-67
2023/05/04 10:09:31;;;;;;;10.60;7.03;;;;;;;22.28;38.59;101767.25;4990633;28;20073;-68
2023/05/04 10:12:05;;;;;;;14.07;7.72;;;;;;;21.87;39.68;101749.50;4991497;28;20109;-68
2023/05/04 10:14:34;;;;;;;8.77;6.38;;;;;;;22.03;42.52;101746.81;4990417;28;20030;-68
2023/05/04 10:17:14;;;;;;;16.13;7.72;;;;;;;22.45;42.24;101737.69;4991450;28;20490;-67
2023/05/04 10:20:01;;;;;;;11.35;7.38;;;;;;;22.95;43.73;101736.84;4991873;28;20046;-67
2023/05/04 10:22:41;;;;;;;11.73;7.10;;;;;;;23.10;41.37;101734.28;4991137;28;20609;-68
2023/05/04 10:25:37;;;;;;;13.75;7.07;;;;;;;23.39;42.21;101717.09;4991239;28;20378;-68
2023/05/04 10:28:14;;;;;;;10.23;7.25;;;;;;;23.34;37.42;101714.84;4991584;28;20451;-67
2023/05/04 10:30:39;;;;;;;15.25;7.13;;;;;;;23.29;38.13;101700.63;4989892;28;20125;-68
2023/05/04 10:33:05;;;;;;;17.48;7.75;;;;;;;23.51;41.57;101700.97;4991196;28;20030;-68
2023/05/04 10:35:31;;;;;;;11.13;7.13;;;;;;;23.42;37.52;101689.84;4991408;28;20030;-68
2023/05/04 10:37:56;;;;;;;8.88;6.32;;;;;;;23.46;39.37;101692.28;4989392;28;20508;-68
2023/05/04 10:40:38;;;;;;;10.93;6.88;;;;;;;23.54;39.10;101683.91;4990975;28;20030;-68
2023/05/04 10:43:07;;;;;;;14.95;7.40;;;;;;;23.60;37.91;101675.78;4991230;28;20065;-68
2023/05/04 10:45:38;;;;;;;13.00;6.28;;;;;;;23.93;40.95;101678.50;4991160;28;20061;-68
2023/05/04 10:48:04;;;;;;;12.45;7.35;;;;;;;24.06;39.10;101664.91;4990820;28;20049;-69
2023/05/04 10:50:48;;;;;;;9.35;7.80;;;;;;;23.98;36.99;101664.94;4991125;28;20042;-68
2023/05/04 10:53:15;;;;;;;10.70;7.05;;;;;;;23.86;38.14;101650.53;4990697;28;20042;-67
2023/05/04 10:55:46;;;;;;;13.18;7.13;;;;;;;23.59;36.63;101645.38;4991054;28;20023;-67
2023/05/04 10:58:15;;;;;;;11.10;7.25;;;;;;;23.42;36.49;101637.09;4990868;28;20265;-68
2023/05/04 11:00:43;;;;;;;11.90;7.25;;;;;;;23.29;38.42;101631.19;4990498;28;20045;-68
2023/05/04 11:03:10;;;;;;;10.90;7.13;;;;;;;23.42;38.10;101628.75;4990453;28;20554;-67
2023/05/04 11:05:40;;;;;;;14.32;6.30;;;;;;;23.66;41.91;101633.41;4990777;28;20184;-67
2023/05/04 11:08:18;;;;;;;7.85;6.00;;;;;;;24.12;40.98;101618.84;4990204;28;20096;-68
2023/05/04 11:10:58;;;;;;;11.25;5.45;;;;;;;24.31;37.63;101625.88;4990157;28;20042;-68
2023/05/04 11:13:25;;;;;;;8.73;5.55;;;;;;;24.35;33.75;101613.31;4990668;28;20049;-68
2023/05/04 11:15:51;;;;;;;10.10;5.45;;;;;;;24.38;36.52;101605.50;4997346;28;20458;-68
2023/05/04 11:18:36;;;;;;;9.02;5.68;;;;;;;24.36;35.65;101609.50;5008212;28;20041;-68
2023/05/04 11:21:02;;;;;;;11.82;5.07;;;;;;;24.45;35.56;101604.78;5009968;28;20038;-68